createdAt,value
2018-10-17T00:02:10.603Z,15.80
2018-10-17T00:04:39.243Z,15.80
2018-10-17T00:07:07.808Z,15.80
2018-10-17T00:09:36.279Z,15.80
2018-10-17T00:12:04.885Z,15.80
2018-10-17T00:14:33.494Z,15.70
2018-10-17T00:17:02.062Z,15.70
2018-10-17T00:19:30.624Z,15.60
2018-10-17T00:21:59.137Z,15.50
2018-10-17T00:24:27.625Z,15.40
2018-10-17T00:26:56.291Z,15.30
2018-10-17T00:29:24.806Z,15.30
2018-10-17T00:31:53.337Z,15.20
2018-10-17T00:34:21.924Z,15.20
2018-10-17T00:36:50.432Z,15.10
2018-10-17T00:39:18.929Z,15.00
2018-10-17T00:41:47.468Z,15.00
2018-10-17T00:44:16.007Z,14.90
2018-10-17T00:46:44.555Z,14.90
2018-10-17T00:49:13.180Z,14.80
2018-10-17T00:51:41.611Z,14.80
2018-10-17T00:54:10.178Z,14.70
2018-10-17T00:56:38.667Z,14.70
2018-10-17T00:59:13.183Z,14.70
2018-10-17T01:01:41.657Z,14.60
2018-10-17T01:04:10.313Z,14.60
2018-10-17T01:06:39.395Z,14.60
2018-10-17T01:09:13.812Z,14.50
2018-10-17T01:11:42.585Z,14.50
2018-10-17T01:14:11.253Z,14.50
2018-10-17T01:16:39.739Z,14.40
2018-10-17T01:19:08.601Z,14.40
2018-10-17T01:21:37.617Z,14.30
2018-10-17T01:24:06.405Z,14.30
2018-10-17T01:26:34.913Z,14.30
2018-10-17T01:29:03.601Z,14.30
2018-10-17T01:31:32.156Z,14.30
2018-10-17T01:34:00.659Z,14.30
2018-10-17T01:36:29.153Z,14.30
2018-10-17T01:38:57.639Z,14.20
2018-10-17T01:41:26.285Z,14.20
2018-10-17T01:43:54.897Z,14.10
2018-10-17T01:46:23.380Z,14.10
2018-10-17T01:48:51.901Z,14.00
2018-10-17T01:51:20.404Z,14.00
2018-10-17T01:53:48.992Z,14.00
2018-10-17T01:56:17.625Z,14.00
2018-10-17T01:58:46.221Z,14.00
2018-10-17T02:01:14.794Z,14.00
2018-10-17T02:03:43.244Z,14.00
2018-10-17T02:06:11.944Z,14.00
2018-10-17T02:08:40.451Z,13.90
2018-10-17T02:11:08.999Z,13.90
2018-10-17T02:13:37.476Z,13.90
2018-10-17T02:16:06.020Z,13.90
2018-10-17T02:18:34.515Z,13.90
2018-10-17T02:21:03.012Z,13.90
2018-10-17T02:23:31.508Z,13.80
2018-10-17T02:26:00.023Z,13.80
2018-10-17T02:28:28.515Z,13.80
2018-10-17T02:30:57.216Z,13.80
2018-10-17T02:33:25.671Z,13.80
2018-10-17T02:35:54.198Z,13.80
2018-10-17T02:38:22.735Z,13.80
2018-10-17T02:40:51.327Z,13.80
2018-10-17T02:43:19.886Z,13.80
2018-10-17T02:45:48.454Z,13.70
2018-10-17T02:48:16.934Z,13.80
2018-10-17T02:50:45.404Z,13.70
2018-10-17T02:53:13.936Z,13.70
2018-10-17T02:55:42.433Z,13.70
2018-10-17T02:58:11.002Z,13.60
2018-10-17T03:00:39.507Z,13.60
2018-10-17T03:03:08.076Z,13.60
2018-10-17T03:05:36.608Z,13.60
2018-10-17T03:08:05.444Z,13.60
2018-10-17T03:10:34.047Z,13.60
2018-10-17T03:13:02.586Z,13.50
2018-10-17T03:15:31.142Z,13.50
2018-10-17T03:17:59.694Z,13.50
2018-10-17T03:20:28.203Z,13.40
2018-10-17T03:22:56.880Z,13.40
2018-10-17T03:25:25.376Z,13.40
2018-10-17T03:27:53.997Z,13.40
2018-10-17T03:30:22.388Z,13.30
2018-10-17T03:32:50.992Z,13.30
2018-10-17T03:35:19.483Z,13.30
2018-10-17T03:37:47.979Z,13.20
2018-10-17T03:40:16.486Z,13.20
2018-10-17T03:42:44.992Z,13.20
2018-10-17T03:45:13.598Z,13.20
2018-10-17T03:47:42.173Z,13.20
2018-10-17T03:50:10.677Z,13.20
2018-10-17T03:52:39.168Z,13.10
2018-10-17T03:55:07.923Z,13.10
2018-10-17T03:57:36.357Z,13.10
2018-10-17T04:00:05.300Z,13.10
2018-10-17T04:02:34.100Z,13.10
2018-10-17T04:05:03.730Z,13.10
2018-10-17T04:07:32.290Z,13.10
2018-10-17T04:10:00.869Z,13.20
2018-10-17T04:12:29.385Z,13.10
2018-10-17T04:14:57.906Z,13.20
2018-10-17T04:17:26.417Z,13.20
2018-10-17T04:19:54.957Z,13.10
2018-10-17T04:22:23.465Z,13.10
2018-10-17T04:24:52.024Z,13.10
2018-10-17T04:27:20.476Z,13.10
2018-10-17T04:29:49.115Z,13.10
2018-10-17T04:32:17.625Z,13.10
2018-10-17T04:34:46.146Z,13.20
2018-10-17T04:37:14.680Z,13.10
2018-10-17T04:39:43.263Z,13.10
2018-10-17T04:42:11.794Z,13.10
2018-10-17T04:44:40.307Z,13.10
2018-10-17T04:47:08.850Z,13.10
2018-10-17T04:49:37.310Z,13.10
2018-10-17T04:52:06.151Z,13.10
2018-10-17T04:54:34.792Z,13.10
2018-10-17T04:57:03.416Z,13.10
2018-10-17T04:59:32.026Z,13.10
2018-10-17T05:02:00.591Z,13.10
2018-10-17T05:04:29.132Z,13.00
2018-10-17T05:06:57.761Z,13.00
2018-10-17T05:09:26.233Z,13.00
2018-10-17T05:11:54.710Z,12.90
2018-10-17T05:14:23.326Z,12.90
2018-10-17T05:16:51.845Z,12.90
2018-10-17T05:19:20.470Z,12.80
2018-10-17T05:21:48.976Z,12.80
2018-10-17T05:24:17.581Z,12.70
2018-10-17T05:26:46.162Z,12.70
2018-10-17T05:29:14.731Z,12.60
2018-10-17T05:31:43.296Z,12.60
2018-10-17T05:34:11.771Z,12.60
2018-10-17T05:36:40.496Z,12.60
2018-10-17T05:39:09.396Z,12.50
2018-10-17T05:41:38.104Z,12.50
2018-10-17T05:44:06.694Z,12.50
2018-10-17T05:46:35.222Z,12.50
2018-10-17T05:49:03.844Z,12.50
2018-10-17T05:51:32.350Z,12.50
2018-10-17T05:54:00.945Z,12.50
2018-10-17T05:56:29.434Z,12.60
2018-10-17T05:58:57.930Z,12.60
2018-10-17T06:01:26.475Z,12.60
2018-10-17T06:04:01.703Z,12.60
2018-10-17T06:06:30.401Z,12.60
2018-10-17T06:09:00.101Z,12.50
2018-10-17T06:11:28.770Z,12.60
2018-10-17T06:13:57.349Z,12.60
2018-10-17T06:16:25.858Z,12.60
2018-10-17T06:18:55.980Z,12.60
2018-10-17T06:21:24.435Z,12.60
2018-10-17T06:23:52.927Z,12.60
2018-10-17T06:26:21.445Z,12.60
2018-10-17T06:28:49.977Z,12.60
2018-10-17T06:31:18.590Z,12.60
2018-10-17T06:33:47.120Z,12.60
2018-10-17T06:36:15.592Z,12.70
2018-10-17T06:38:44.114Z,12.60
2018-10-17T06:41:12.875Z,12.60
2018-10-17T06:43:41.539Z,12.50
2018-10-17T06:46:10.004Z,12.50
2018-10-17T06:48:38.480Z,12.50
2018-10-17T06:51:07.042Z,12.50
2018-10-17T06:53:35.652Z,12.50
2018-10-17T06:56:04.215Z,12.50
2018-10-17T06:58:32.739Z,12.50
2018-10-17T07:01:01.320Z,12.50
2018-10-17T07:03:29.772Z,12.50
2018-10-17T07:05:58.282Z,12.50
2018-10-17T07:08:26.890Z,12.60
2018-10-17T07:10:55.399Z,12.60
2018-10-17T07:13:23.911Z,12.60
2018-10-17T07:15:52.504Z,12.60
2018-10-17T07:18:20.978Z,12.70
2018-10-17T07:20:50.250Z,12.70
2018-10-17T07:23:19.007Z,12.80
2018-10-17T07:25:47.550Z,12.80
2018-10-17T07:28:16.043Z,12.80
2018-10-17T07:30:45.169Z,12.80
2018-10-17T07:33:13.812Z,12.90
2018-10-17T07:35:42.450Z,12.90
2018-10-17T07:38:11.002Z,13.00
2018-10-17T07:40:39.568Z,13.00
2018-10-17T07:43:14.917Z,13.10
2018-10-17T07:45:43.706Z,13.20
2018-10-17T07:48:12.304Z,13.30
2018-10-17T07:50:40.890Z,13.40
2018-10-17T07:53:09.427Z,13.50
2018-10-17T07:55:38.010Z,13.60
2018-10-17T07:58:06.817Z,13.60
2018-10-17T08:00:35.321Z,13.60
2018-10-17T08:03:03.838Z,13.70
2018-10-17T08:05:32.434Z,13.70
2018-10-17T08:08:00.942Z,13.80
2018-10-17T08:10:35.800Z,13.80
2018-10-17T08:13:05.487Z,13.90
2018-10-17T08:15:34.031Z,13.90
2018-10-17T08:18:02.605Z,14.00
2018-10-17T08:20:31.139Z,14.00
2018-10-17T08:22:59.659Z,14.10
2018-10-17T08:25:28.154Z,14.10
2018-10-17T08:27:56.684Z,14.20
2018-10-17T08:30:25.208Z,14.20
2018-10-17T08:32:53.730Z,14.30
2018-10-17T08:35:22.276Z,14.30
2018-10-17T08:37:51.151Z,14.40
2018-10-17T08:40:19.363Z,14.40
2018-10-17T08:42:47.903Z,14.50
2018-10-17T08:45:16.556Z,14.50
2018-10-17T08:47:45.373Z,14.60
2018-10-17T08:50:13.978Z,14.60
2018-10-17T08:52:42.449Z,14.70
2018-10-17T08:55:11.027Z,14.70
2018-10-17T08:57:39.586Z,14.80
2018-10-17T09:00:08.674Z,14.90
2018-10-17T09:02:37.188Z,15.00
2018-10-17T09:05:05.775Z,15.00
2018-10-17T09:07:34.426Z,15.10
2018-10-17T09:10:02.883Z,15.20
2018-10-17T09:12:31.419Z,15.40
2018-10-17T09:14:59.951Z,15.40
2018-10-17T09:17:28.488Z,15.50
2018-10-17T09:19:57.132Z,15.50
2018-10-17T09:22:25.741Z,15.60
2018-10-17T09:24:54.060Z,15.70
2018-10-17T09:27:22.618Z,15.80
2018-10-17T09:29:51.325Z,15.80
2018-10-17T09:32:19.858Z,15.90
2018-10-17T09:34:48.471Z,16.00
2018-10-17T09:37:16.954Z,16.10
2018-10-17T09:39:45.491Z,16.20
2018-10-17T09:42:14.111Z,16.30
2018-10-17T09:44:42.538Z,16.40
2018-10-17T09:47:11.019Z,16.50
2018-10-17T09:49:39.552Z,16.60
2018-10-17T09:52:08.110Z,16.70
2018-10-17T09:54:36.535Z,16.70
2018-10-17T09:57:05.291Z,16.80
2018-10-17T09:59:33.840Z,16.80
2018-10-17T10:02:02.382Z,16.90
2018-10-17T10:04:30.857Z,17.00
2018-10-17T10:06:59.386Z,17.20
2018-10-17T10:09:27.899Z,17.30
2018-10-17T10:11:56.443Z,17.30
2018-10-17T10:14:24.886Z,17.30
2018-10-17T10:16:53.388Z,17.40
2018-10-17T10:19:21.897Z,17.40
2018-10-17T10:21:50.408Z,17.50
2018-10-17T10:24:19.015Z,17.50
2018-10-17T10:26:47.526Z,17.60
2018-10-17T10:29:16.050Z,17.50
2018-10-17T10:31:44.556Z,17.50
2018-10-17T10:34:13.134Z,17.50
2018-10-17T10:36:41.570Z,17.50
2018-10-17T10:39:11.273Z,17.60
2018-10-17T10:41:40.262Z,17.70
2018-10-17T10:44:08.821Z,17.80
2018-10-17T10:46:37.330Z,17.90
2018-10-17T10:49:05.966Z,17.90
2018-10-17T10:51:34.495Z,17.90
2018-10-17T10:54:03.117Z,17.90
2018-10-17T10:56:32.203Z,17.90
2018-10-17T10:59:00.771Z,18.10
2018-10-17T11:01:29.317Z,18.10
2018-10-17T11:03:57.989Z,18.20
2018-10-17T11:06:26.598Z,18.20
2018-10-17T11:08:55.199Z,18.30
2018-10-17T11:11:23.737Z,18.30
2018-10-17T11:13:52.310Z,18.30
2018-10-17T11:16:20.869Z,18.30
2018-10-17T11:18:49.411Z,18.40
2018-10-17T11:21:18.054Z,18.30
2018-10-17T11:23:46.549Z,18.40
2018-10-17T11:26:15.095Z,18.50
2018-10-17T11:28:43.636Z,18.60
2018-10-17T11:31:12.315Z,18.60
2018-10-17T11:33:40.848Z,18.70
2018-10-17T11:36:09.378Z,18.80
2018-10-17T11:38:37.926Z,18.80
2018-10-17T11:41:06.584Z,18.90
2018-10-17T11:43:35.056Z,18.90
2018-10-17T11:46:03.647Z,19.10
2018-10-17T11:48:32.209Z,19.10
2018-10-17T11:51:00.805Z,19.10
2018-10-17T11:53:29.329Z,19.10
2018-10-17T11:55:57.920Z,19.20
2018-10-17T11:58:26.465Z,19.30
2018-10-17T12:00:55.033Z,19.40
2018-10-17T12:03:23.587Z,19.40
2018-10-17T12:05:52.190Z,19.60
2018-10-17T12:08:20.581Z,19.70
2018-10-17T12:10:49.101Z,19.80
2018-10-17T12:13:17.648Z,20.00
2018-10-17T12:15:46.167Z,20.10
2018-10-17T12:18:14.689Z,20.30
2018-10-17T12:20:43.215Z,20.50
2018-10-17T12:23:11.735Z,20.70
2018-10-17T12:25:40.244Z,20.70
2018-10-17T12:28:08.759Z,20.70
2018-10-17T12:30:37.240Z,20.80
2018-10-17T12:33:05.967Z,20.80
2018-10-17T12:35:34.455Z,20.70
2018-10-17T12:38:02.951Z,20.70
2018-10-17T12:40:31.592Z,20.80
2018-10-17T12:43:00.028Z,20.80
2018-10-17T12:45:28.675Z,20.90
2018-10-17T12:47:57.181Z,20.90
2018-10-17T12:50:25.684Z,20.90
2018-10-17T12:52:54.193Z,21.00
2018-10-17T12:55:22.714Z,21.20
2018-10-17T12:57:51.216Z,21.30
2018-10-17T13:00:19.710Z,21.40
2018-10-17T13:02:48.214Z,21.40
2018-10-17T13:05:18.047Z,21.60
2018-10-17T13:07:46.628Z,21.70
2018-10-17T13:10:15.114Z,21.90
2018-10-17T13:12:43.705Z,22.20
2018-10-17T13:15:14.041Z,22.40
2018-10-17T13:17:43.646Z,22.30
2018-10-17T13:20:12.169Z,22.30
2018-10-17T13:22:40.779Z,22.30
2018-10-17T13:25:10.296Z,22.30
2018-10-17T13:27:38.758Z,22.30
2018-10-17T13:30:07.874Z,22.30
2018-10-17T13:32:36.415Z,22.20
2018-10-17T13:35:05.575Z,22.10
2018-10-17T13:37:34.163Z,22.00
2018-10-17T13:40:02.957Z,21.80
2018-10-17T13:42:31.547Z,21.70
2018-10-17T13:45:00.339Z,21.70
2018-10-17T13:47:29.003Z,21.60
2018-10-17T13:49:57.907Z,21.60
2018-10-17T13:52:26.595Z,21.50
2018-10-17T13:54:55.168Z,21.40
2018-10-17T13:57:23.712Z,21.20
2018-10-17T13:59:52.306Z,21.10
2018-10-17T14:02:20.803Z,21.10
2018-10-17T14:04:49.324Z,21.00
2018-10-17T14:07:17.992Z,21.00
2018-10-17T14:09:46.512Z,20.90
2018-10-17T14:12:15.072Z,20.90
2018-10-17T14:14:43.529Z,20.90
2018-10-17T14:17:12.091Z,20.80
2018-10-17T14:19:40.631Z,20.80
2018-10-17T14:22:09.827Z,20.90
2018-10-17T14:24:38.393Z,20.80
2018-10-17T14:27:07.378Z,20.80
2018-10-17T14:29:35.918Z,20.80
2018-10-17T14:32:04.745Z,20.80
2018-10-17T14:34:33.301Z,20.80
2018-10-17T14:37:01.903Z,20.80
2018-10-17T14:39:30.572Z,20.90
2018-10-17T14:41:59.818Z,21.00
2018-10-17T14:44:28.389Z,20.90
2018-10-17T14:46:56.971Z,20.80
2018-10-17T14:49:25.495Z,20.70
2018-10-17T14:51:54.031Z,20.60
2018-10-17T14:54:22.539Z,20.50
2018-10-17T14:56:51.028Z,20.40
2018-10-17T14:59:19.908Z,20.40
2018-10-17T15:01:48.463Z,20.30
2018-10-17T15:04:17.023Z,20.20
2018-10-17T15:06:45.643Z,20.20
2018-10-17T15:09:14.388Z,20.10
2018-10-17T15:11:43.006Z,20.20
2018-10-17T15:14:11.545Z,20.20
2018-10-17T15:16:40.126Z,20.00
2018-10-17T15:19:08.699Z,20.00
2018-10-17T15:21:37.211Z,20.00
2018-10-17T15:24:06.037Z,20.00
2018-10-17T15:26:34.529Z,19.90
2018-10-17T15:29:03.087Z,19.90
2018-10-17T15:31:31.697Z,19.90
2018-10-17T15:34:00.229Z,19.90
2018-10-17T15:36:28.772Z,19.80
2018-10-17T15:38:57.433Z,19.80
2018-10-17T15:41:25.911Z,19.70
2018-10-17T15:43:54.538Z,19.70
2018-10-17T15:46:23.054Z,19.80
2018-10-17T15:48:51.599Z,19.70
2018-10-17T15:51:20.197Z,19.70
2018-10-17T15:53:48.776Z,19.60
2018-10-17T15:56:17.317Z,19.60
2018-10-17T15:58:45.859Z,19.60
2018-10-17T16:01:14.417Z,19.50
2018-10-17T16:03:42.898Z,19.40
2018-10-17T16:06:11.432Z,19.40
2018-10-17T16:08:39.950Z,19.30
2018-10-17T16:11:08.458Z,19.20
2018-10-17T16:13:37.133Z,19.20
2018-10-17T16:16:06.477Z,19.00
2018-10-17T16:18:35.120Z,19.00
2018-10-17T16:21:03.699Z,18.90
2018-10-17T16:23:32.211Z,18.90
2018-10-17T16:26:00.708Z,18.90
2018-10-17T16:28:29.270Z,18.80
2018-10-17T16:30:57.882Z,18.80
2018-10-17T16:33:26.395Z,18.70
2018-10-17T16:35:55.002Z,18.70
2018-10-17T16:38:23.522Z,18.60
2018-10-17T16:40:52.165Z,18.50
2018-10-17T16:43:20.687Z,18.50
2018-10-17T16:45:49.272Z,18.40
2018-10-17T16:48:17.860Z,18.30
2018-10-17T16:50:46.450Z,18.30
2018-10-17T16:53:14.901Z,18.20
2018-10-17T16:55:43.424Z,18.20
2018-10-17T16:58:12.027Z,18.10
2018-10-17T17:00:40.496Z,18.00
2018-10-17T17:03:09.559Z,18.00
2018-10-17T17:05:38.094Z,17.90
2018-10-17T17:08:06.716Z,17.90
2018-10-17T17:10:35.263Z,17.80
2018-10-17T17:13:03.840Z,17.80
2018-10-17T17:15:33.075Z,17.70
2018-10-17T17:18:01.591Z,17.70
2018-10-17T17:20:30.176Z,17.60
2018-10-17T17:22:58.681Z,17.60
2018-10-17T17:25:27.286Z,17.60
2018-10-17T17:27:55.816Z,17.50
2018-10-17T17:30:24.429Z,17.50
2018-10-17T17:32:52.907Z,17.40
2018-10-17T17:37:50.062Z,17.30
2018-10-17T17:40:18.637Z,17.30
2018-10-17T17:42:47.175Z,17.30
2018-10-17T17:45:15.687Z,17.20
2018-10-17T17:47:44.240Z,17.20
2018-10-17T17:50:12.802Z,17.10
2018-10-17T17:52:41.376Z,17.10
2018-10-17T17:55:10.310Z,17.00
2018-10-17T17:57:39.221Z,16.90
2018-10-17T18:00:08.254Z,16.90
2018-10-17T18:02:36.785Z,16.80
2018-10-17T18:05:06.012Z,16.70
2018-10-17T18:07:34.516Z,16.60
2018-10-17T18:10:03.177Z,16.60
2018-10-17T18:12:31.726Z,16.60
2018-10-17T18:15:00.340Z,16.50
2018-10-17T18:17:28.864Z,16.40
2018-10-17T18:19:57.469Z,16.40
2018-10-17T18:22:26.058Z,16.30
2018-10-17T18:24:54.667Z,16.20
2018-10-17T18:27:23.311Z,16.20
2018-10-17T18:29:52.821Z,16.20
2018-10-17T18:32:22.248Z,16.10
2018-10-17T18:34:50.857Z,16.00
2018-10-17T18:37:19.418Z,16.00
2018-10-17T18:39:47.961Z,15.90
2018-10-17T18:42:16.571Z,15.90
2018-10-17T18:44:45.136Z,15.90
2018-10-17T18:47:13.684Z,15.80
2018-10-17T18:49:42.974Z,15.80
2018-10-17T18:52:11.589Z,15.70
2018-10-17T18:54:40.247Z,15.70
2018-10-17T18:57:08.944Z,15.70
2018-10-17T18:59:37.694Z,15.70
2018-10-17T19:02:06.513Z,15.60
2018-10-17T19:04:35.073Z,15.60
2018-10-17T19:07:03.639Z,15.50
2018-10-17T19:09:32.176Z,15.50
2018-10-17T19:12:00.709Z,15.40
2018-10-17T19:14:29.270Z,15.40
2018-10-17T19:16:57.814Z,15.40
2018-10-17T19:19:26.389Z,15.30
2018-10-17T19:21:54.903Z,15.30
2018-10-17T19:24:23.462Z,15.30
2018-10-17T19:26:52.078Z,15.20
2018-10-17T19:29:20.622Z,15.20
2018-10-17T19:31:49.133Z,15.20
2018-10-17T19:34:17.696Z,15.10
2018-10-17T19:36:46.222Z,15.10
2018-10-17T19:39:14.798Z,15.10
2018-10-17T19:41:43.673Z,15.00
2018-10-17T19:44:13.096Z,15.00
2018-10-17T19:46:41.642Z,14.90
2018-10-17T19:49:10.430Z,14.90
2018-10-17T19:51:38.929Z,14.80
2018-10-17T19:54:08.332Z,14.80
2018-10-17T19:56:36.903Z,14.80
2018-10-17T19:59:14.700Z,14.80
2018-10-17T20:01:43.316Z,14.80
2018-10-17T20:04:11.839Z,14.70
2018-10-17T20:06:40.336Z,14.70
2018-10-17T20:09:10.247Z,14.70
2018-10-17T20:11:38.806Z,14.60
2018-10-17T20:14:08.365Z,14.60
2018-10-17T20:16:36.866Z,14.60
2018-10-17T20:19:05.734Z,14.60
2018-10-17T20:21:34.232Z,14.60
2018-10-17T20:24:02.802Z,14.60
2018-10-17T20:26:31.377Z,14.50
2018-10-17T20:28:59.917Z,14.50
2018-10-17T20:31:28.462Z,14.50
2018-10-17T20:33:56.957Z,14.50
2018-10-17T20:36:25.447Z,14.40
2018-10-17T20:38:54.002Z,14.40
2018-10-17T20:41:23.588Z,14.40
2018-10-17T20:43:52.107Z,14.40
2018-10-17T20:46:20.975Z,14.40
2018-10-17T20:48:49.473Z,14.30
2018-10-17T20:51:18.110Z,14.30
2018-10-17T20:53:46.693Z,14.30
2018-10-17T20:56:15.264Z,14.20
2018-10-17T20:58:43.799Z,14.20
2018-10-17T21:01:12.327Z,14.20
2018-10-17T21:03:40.880Z,14.20
2018-10-17T21:06:09.372Z,14.20
2018-10-17T21:08:38.019Z,14.20
2018-10-17T21:11:06.680Z,14.20
2018-10-17T21:13:35.208Z,14.20
2018-10-17T21:16:03.728Z,14.10
2018-10-17T21:18:32.377Z,14.10
2018-10-17T21:21:00.770Z,14.10
2018-10-17T21:23:29.334Z,14.10
2018-10-17T21:25:57.967Z,14.10
2018-10-17T21:28:26.461Z,14.10
2018-10-17T21:30:55.083Z,14.10
2018-10-17T21:33:23.633Z,14.20
2018-10-17T21:35:52.658Z,14.20
2018-10-17T21:38:21.180Z,14.20
2018-10-17T21:40:49.666Z,14.20
2018-10-17T21:43:19.021Z,14.20
2018-10-17T21:45:47.573Z,14.20
2018-10-17T21:48:16.076Z,14.20
2018-10-17T21:50:44.662Z,14.20
2018-10-17T21:53:13.271Z,14.20
2018-10-17T21:55:41.825Z,14.20
2018-10-17T21:58:10.328Z,14.20
2018-10-17T22:00:39.695Z,14.20
2018-10-17T22:03:08.170Z,14.20
2018-10-17T22:05:36.801Z,14.20
2018-10-17T22:08:05.863Z,14.20
2018-10-17T22:10:34.402Z,14.20
2018-10-17T22:13:02.880Z,14.20
2018-10-17T22:15:31.497Z,14.20
2018-10-17T22:18:00.004Z,14.20
2018-10-17T22:20:28.573Z,14.20
2018-10-17T22:22:57.093Z,14.20
2018-10-17T22:25:25.583Z,14.20
2018-10-17T22:27:54.113Z,14.20
2018-10-17T22:30:22.688Z,14.20
2018-10-17T22:32:51.193Z,14.20
2018-10-17T22:35:19.881Z,14.20
2018-10-17T22:37:48.410Z,14.30
2018-10-17T22:40:16.908Z,14.20
2018-10-17T22:42:45.415Z,14.30
2018-10-17T22:45:13.909Z,14.30
2018-10-17T22:47:42.401Z,14.20
2018-10-17T22:50:11.550Z,14.20
2018-10-17T22:52:40.430Z,14.20
2018-10-17T22:55:08.936Z,14.20
2018-10-17T22:57:37.479Z,14.20
2018-10-17T23:00:07.311Z,14.20
2018-10-17T23:02:35.802Z,14.20
2018-10-17T23:05:05.698Z,14.20
2018-10-17T23:07:34.388Z,14.20
2018-10-17T23:10:02.970Z,14.20
2018-10-17T23:12:31.544Z,14.20
2018-10-17T23:15:00.048Z,14.20
2018-10-17T23:17:28.727Z,14.20
2018-10-17T23:19:57.219Z,14.20
2018-10-17T23:22:25.723Z,14.20
2018-10-17T23:24:54.298Z,14.20
2018-10-17T23:27:22.832Z,14.20
2018-10-17T23:29:51.340Z,14.20
2018-10-17T23:32:19.881Z,14.20
2018-10-17T23:34:49.296Z,14.20
2018-10-17T23:37:17.765Z,14.20
2018-10-17T23:39:46.352Z,14.20
2018-10-17T23:42:15.051Z,14.20
2018-10-17T23:44:43.485Z,14.20
2018-10-17T23:47:11.968Z,14.20
2018-10-17T23:49:40.439Z,14.20
2018-10-17T23:52:08.933Z,14.20
2018-10-17T23:54:37.424Z,14.20
2018-10-17T23:57:06.305Z,14.10
2018-10-17T23:59:34.883Z,14.20
